createdAt,value
2022-08-19T00:00:02.784Z,20.00
2022-08-19T00:01:02.911Z,20.00
2022-08-19T00:02:02.920Z,20.00
2022-08-19T00:03:02.916Z,20.00
2022-08-19T00:04:02.934Z,20.00
2022-08-19T00:05:02.965Z,20.00
2022-08-19T00:06:02.869Z,20.00
2022-08-19T00:07:02.991Z,20.00
2022-08-19T00:08:03.080Z,20.00
2022-08-19T00:09:03.047Z,20.00
2022-08-19T00:10:03.363Z,20.00
2022-08-19T00:11:02.653Z,20.00
2022-08-19T00:12:02.681Z,19.90
2022-08-19T00:13:02.791Z,20.00
2022-08-19T00:14:02.793Z,20.00
2022-08-19T00:15:02.888Z,19.90
2022-08-19T00:16:02.833Z,19.90
2022-08-19T00:17:02.881Z,19.90
2022-08-19T00:18:02.857Z,19.90
2022-08-19T00:19:02.925Z,19.90
2022-08-19T00:20:03.025Z,19.90
2022-08-19T00:21:03.135Z,19.90
2022-08-19T00:22:03.132Z,19.90
2022-08-19T00:23:03.248Z,19.90
2022-08-19T00:24:03.202Z,19.90
2022-08-19T00:25:03.244Z,19.90
2022-08-19T00:26:03.249Z,19.90
2022-08-19T00:27:04.984Z,19.90
2022-08-19T00:28:03.423Z,19.90
2022-08-19T00:29:03.428Z,19.90
2022-08-19T00:30:03.499Z,19.90
2022-08-19T00:31:03.486Z,19.90
2022-08-19T00:32:03.597Z,19.90
2022-08-19T00:33:03.576Z,19.80
2022-08-19T00:34:03.592Z,19.80
2022-08-19T00:35:02.619Z,19.80
2022-08-19T00:36:02.659Z,19.80
2022-08-19T00:37:02.773Z,19.80
2022-08-19T00:38:02.814Z,19.80
2022-08-19T00:39:02.793Z,19.80
2022-08-19T00:40:02.814Z,19.80
2022-08-19T00:41:02.845Z,19.80
2022-08-19T00:42:02.972Z,19.80
2022-08-19T00:43:03.130Z,19.80
2022-08-19T00:44:03.162Z,19.80
2022-08-19T00:45:03.133Z,19.80
2022-08-19T00:46:03.161Z,19.80
2022-08-19T00:47:03.400Z,19.80
2022-08-19T00:48:03.450Z,19.80
2022-08-19T00:49:03.568Z,19.80
2022-08-19T00:50:03.573Z,19.80
2022-08-19T00:51:02.734Z,19.80
2022-08-19T00:52:02.670Z,19.80
2022-08-19T00:53:02.714Z,19.80
2022-08-19T00:54:03.471Z,19.80
2022-08-19T00:55:02.642Z,19.80
2022-08-19T00:56:03.762Z,19.80
2022-08-19T00:57:02.744Z,19.80
2022-08-19T00:58:02.867Z,19.80
2022-08-19T00:59:02.840Z,19.80
2022-08-19T01:00:03.342Z,19.80
2022-08-19T01:01:02.924Z,19.80
2022-08-19T01:02:03.072Z,19.80
2022-08-19T01:03:03.047Z,19.80
2022-08-19T01:04:03.113Z,19.80
2022-08-19T01:05:03.190Z,19.80
2022-08-19T01:06:03.387Z,19.80
2022-08-19T01:07:03.373Z,19.80
2022-08-19T01:08:03.433Z,19.80
2022-08-19T01:09:03.515Z,19.80
2022-08-19T01:10:03.488Z,19.80
2022-08-19T01:11:03.571Z,19.80
2022-08-19T01:12:03.622Z,19.70
2022-08-19T01:13:02.822Z,19.70
2022-08-19T01:14:02.773Z,19.80
2022-08-19T01:15:02.799Z,19.80
2022-08-19T01:16:02.841Z,19.70
2022-08-19T01:17:03.056Z,19.80
2022-08-19T01:18:03.030Z,19.70
2022-08-19T01:19:03.038Z,19.70
2022-08-19T01:20:03.092Z,19.70
2022-08-19T01:21:03.230Z,19.70
2022-08-19T01:22:04.076Z,19.70
2022-08-19T01:23:03.284Z,19.70
2022-08-19T01:24:03.205Z,19.70
2022-08-19T01:25:03.387Z,19.70
2022-08-19T01:26:03.305Z,19.70
2022-08-19T01:27:03.452Z,19.70
2022-08-19T01:28:10.759Z,19.70
2022-08-19T01:29:05.177Z,19.70
2022-08-19T01:30:02.925Z,19.70
2022-08-19T01:31:07.123Z,19.70
2022-08-19T01:32:03.106Z,19.70
2022-08-19T01:33:03.051Z,19.70
2022-08-19T01:34:03.137Z,19.70
2022-08-19T01:35:03.199Z,19.70
2022-08-19T01:36:03.206Z,19.70
2022-08-19T01:37:03.204Z,19.70
2022-08-19T01:38:03.263Z,19.70
2022-08-19T01:39:03.227Z,19.70
2022-08-19T01:40:06.433Z,19.70
2022-08-19T01:41:03.460Z,19.70
2022-08-19T01:42:03.573Z,19.70
2022-08-19T01:43:03.527Z,19.70
2022-08-19T01:44:03.080Z,19.70
2022-08-19T01:45:03.009Z,19.70
2022-08-19T01:46:03.058Z,19.70
2022-08-19T01:47:03.110Z,19.70
2022-08-19T01:48:03.182Z,19.70
2022-08-19T01:49:03.145Z,19.70
2022-08-19T01:50:03.188Z,19.70
2022-08-19T01:51:03.113Z,19.70
2022-08-19T01:52:03.208Z,19.70
2022-08-19T01:53:03.398Z,19.60
2022-08-19T01:54:03.196Z,19.70
2022-08-19T01:55:03.338Z,19.70
2022-08-19T01:56:03.320Z,19.70
2022-08-19T01:57:03.465Z,19.60
2022-08-19T01:58:03.593Z,19.70
2022-08-19T01:59:03.564Z,19.60
2022-08-19T02:00:02.691Z,19.70
2022-08-19T02:01:02.686Z,19.70
2022-08-19T02:02:02.787Z,19.70
2022-08-19T02:03:02.796Z,19.70
2022-08-19T02:04:02.845Z,19.70
2022-08-19T02:05:02.815Z,19.70
2022-08-19T02:06:02.910Z,19.70
2022-08-19T02:07:02.880Z,19.70
2022-08-19T02:08:03.038Z,19.70
2022-08-19T02:09:02.999Z,19.70
2022-08-19T02:10:03.079Z,19.70
2022-08-19T02:11:03.149Z,19.70
2022-08-19T02:12:03.259Z,19.70
2022-08-19T02:13:03.237Z,19.70
2022-08-19T02:14:03.296Z,19.70
2022-08-19T02:15:03.247Z,19.70
2022-08-19T02:16:04.411Z,19.70
2022-08-19T02:17:03.360Z,19.70
2022-08-19T02:18:03.395Z,19.70
2022-08-19T02:19:03.526Z,19.70
2022-08-19T02:20:03.490Z,19.70
2022-08-19T02:21:03.592Z,19.70
2022-08-19T02:22:03.624Z,19.70
2022-08-19T02:23:02.600Z,19.70
2022-08-19T02:24:02.690Z,19.70
2022-08-19T02:25:02.852Z,19.70
2022-08-19T02:26:02.973Z,19.70
2022-08-19T02:27:02.993Z,19.70
2022-08-19T02:28:03.077Z,19.70
2022-08-19T02:29:03.124Z,19.70
2022-08-19T02:30:03.219Z,19.70
2022-08-19T02:31:03.224Z,19.70
2022-08-19T02:32:03.312Z,19.70
2022-08-19T02:33:03.281Z,19.70
2022-08-19T02:34:03.503Z,19.70
2022-08-19T02:35:03.357Z,19.70
2022-08-19T02:36:03.447Z,19.70
2022-08-19T02:37:03.829Z,19.70
2022-08-19T02:38:03.531Z,19.70
2022-08-19T02:39:02.665Z,19.70
2022-08-19T02:40:02.858Z,19.70
2022-08-19T02:41:02.880Z,19.70
2022-08-19T02:42:02.988Z,19.70
2022-08-19T02:43:02.976Z,19.70
2022-08-19T02:44:14.313Z,19.70
2022-08-19T02:45:03.055Z,19.70
2022-08-19T02:46:03.057Z,19.70
2022-08-19T02:47:03.077Z,19.70
2022-08-19T02:48:03.398Z,19.70
2022-08-19T02:49:03.179Z,19.70
2022-08-19T02:50:03.310Z,19.70
2022-08-19T02:51:03.391Z,19.70
2022-08-19T02:52:03.320Z,19.70
2022-08-19T02:53:03.345Z,19.70
2022-08-19T02:54:03.389Z,19.70
2022-08-19T02:55:03.985Z,19.70
2022-08-19T02:56:03.024Z,19.70
2022-08-19T02:57:03.140Z,19.70
2022-08-19T02:58:03.097Z,19.70
2022-08-19T02:59:03.147Z,19.70
2022-08-19T03:00:03.181Z,19.70
2022-08-19T03:01:03.207Z,19.70
2022-08-19T03:02:03.176Z,19.70
2022-08-19T03:03:03.133Z,19.70
2022-08-19T03:04:03.203Z,19.70
2022-08-19T03:05:03.217Z,19.70
2022-08-19T03:06:03.476Z,19.70
2022-08-19T03:07:10.533Z,19.70
2022-08-19T03:08:03.493Z,19.70
2022-08-19T03:09:03.419Z,19.70
2022-08-19T03:10:03.475Z,19.70
2022-08-19T03:11:03.581Z,19.70
2022-08-19T03:12:02.785Z,19.70
2022-08-19T03:13:02.799Z,19.70
2022-08-19T03:14:02.849Z,19.70
2022-08-19T03:15:02.856Z,19.70
2022-08-19T03:16:03.002Z,19.70
2022-08-19T03:17:03.054Z,19.70
2022-08-19T03:18:03.061Z,19.70
2022-08-19T03:19:03.136Z,19.70
2022-08-19T03:20:03.180Z,19.70
2022-08-19T03:21:03.323Z,19.70
2022-08-19T03:22:03.450Z,19.70
2022-08-19T03:23:03.467Z,19.80
2022-08-19T03:24:03.464Z,19.70
2022-08-19T03:25:03.497Z,19.70
2022-08-19T03:26:05.638Z,19.70
2022-08-19T03:27:03.591Z,19.70
2022-08-19T03:28:02.688Z,19.70
2022-08-19T03:29:02.658Z,19.70
2022-08-19T03:30:02.806Z,19.70
2022-08-19T03:31:02.805Z,19.70
2022-08-19T03:32:04.554Z,19.70
2022-08-19T03:33:03.342Z,19.70
2022-08-19T03:34:03.396Z,19.70
2022-08-19T03:35:03.503Z,19.70
2022-08-19T03:36:03.506Z,19.70
2022-08-19T03:37:03.594Z,19.70
2022-08-19T03:38:02.615Z,19.70
2022-08-19T03:39:02.620Z,19.70
2022-08-19T03:40:02.779Z,19.70
2022-08-19T03:41:02.815Z,19.70
2022-08-19T03:42:31.777Z,19.80
2022-08-19T03:43:03.801Z,19.70
2022-08-19T03:44:03.579Z,19.70
2022-08-19T03:45:02.640Z,19.70
2022-08-19T03:46:02.763Z,19.70
2022-08-19T03:47:03.350Z,19.70
2022-08-19T03:48:03.398Z,19.70
2022-08-19T03:49:03.397Z,19.70
2022-08-19T03:50:03.448Z,19.70
2022-08-19T03:51:03.546Z,19.70
2022-08-19T03:52:03.522Z,19.70
2022-08-19T03:53:02.702Z,19.70
2022-08-19T03:54:02.685Z,19.70
2022-08-19T03:55:02.810Z,19.70
2022-08-19T03:56:02.798Z,19.70
2022-08-19T03:57:02.941Z,19.70
2022-08-19T03:58:03.031Z,19.70
2022-08-19T03:59:03.114Z,19.70
2022-08-19T04:00:04.181Z,19.70
2022-08-19T04:01:03.149Z,19.70
2022-08-19T04:02:03.173Z,19.70
2022-08-19T04:03:03.265Z,19.70
2022-08-19T04:04:03.330Z,19.70
2022-08-19T04:05:03.289Z,19.70
2022-08-19T04:06:03.388Z,19.70
2022-08-19T04:07:03.464Z,19.70
2022-08-19T04:08:03.467Z,19.70
2022-08-19T04:09:03.495Z,19.70
2022-08-19T04:10:03.452Z,19.70
2022-08-19T04:11:03.434Z,19.70
2022-08-19T04:12:03.525Z,19.70
2022-08-19T04:13:03.482Z,19.70
2022-08-19T04:14:04.396Z,19.70
2022-08-19T04:15:02.655Z,19.70
2022-08-19T04:16:02.673Z,19.70
2022-08-19T04:17:02.694Z,19.70
2022-08-19T04:18:02.683Z,19.70
2022-08-19T04:19:02.713Z,19.70
2022-08-19T04:20:06.835Z,19.70
2022-08-19T04:21:02.768Z,19.70
2022-08-19T04:22:02.814Z,19.70
2022-08-19T04:23:02.802Z,19.70
2022-08-19T04:24:03.762Z,19.70
2022-08-19T04:25:03.134Z,19.70
2022-08-19T04:26:03.245Z,19.70
2022-08-19T04:27:03.276Z,19.70
2022-08-19T04:28:03.397Z,19.70
2022-08-19T04:29:03.393Z,19.70
2022-08-19T04:30:03.436Z,19.70
2022-08-19T04:31:03.523Z,19.70
2022-08-19T04:32:08.883Z,19.70
2022-08-19T04:33:02.680Z,19.70
2022-08-19T04:34:02.674Z,19.70
2022-08-19T04:35:17.752Z,19.70
2022-08-19T04:36:02.758Z,19.70
2022-08-19T04:37:02.717Z,19.70
2022-08-19T04:38:02.833Z,19.70
2022-08-19T04:39:02.931Z,19.70
2022-08-19T04:40:03.020Z,19.80
2022-08-19T04:41:02.942Z,19.70
2022-08-19T04:42:02.898Z,19.70
2022-08-19T04:43:02.937Z,19.70
2022-08-19T04:44:04.483Z,19.70
2022-08-19T04:45:03.093Z,19.70
2022-08-19T04:46:03.022Z,19.70
2022-08-19T04:47:03.140Z,19.70
2022-08-19T04:48:19.913Z,19.70
2022-08-19T04:49:10.657Z,19.70
2022-08-19T04:50:03.384Z,19.70
2022-08-19T04:51:03.357Z,19.70
2022-08-19T04:52:03.428Z,19.70
2022-08-19T04:53:03.395Z,19.70
2022-08-19T04:54:03.602Z,19.70
2022-08-19T04:55:03.657Z,19.70
2022-08-19T04:56:03.607Z,19.70
2022-08-19T04:57:03.603Z,19.80
2022-08-19T04:58:02.742Z,19.70
2022-08-19T04:59:02.789Z,19.70
2022-08-19T05:00:02.775Z,19.80
2022-08-19T05:01:02.920Z,19.80
2022-08-19T05:02:03.004Z,19.80
2022-08-19T05:03:02.978Z,19.80
2022-08-19T05:04:02.965Z,19.80
2022-08-19T05:05:03.085Z,19.80
2022-08-19T05:06:03.098Z,19.80
2022-08-19T05:07:03.082Z,19.80
2022-08-19T05:08:03.166Z,19.80
2022-08-19T05:09:03.169Z,19.80
2022-08-19T05:10:03.191Z,19.80
2022-08-19T05:11:03.241Z,19.80
2022-08-19T05:12:03.328Z,19.80
2022-08-19T05:13:03.325Z,19.80
2022-08-19T05:14:03.310Z,19.80
2022-08-19T05:15:03.520Z,19.80
2022-08-19T05:16:03.526Z,19.80
2022-08-19T05:17:25.933Z,19.80
2022-08-19T05:18:03.534Z,19.80
2022-08-19T05:19:02.677Z,19.80
2022-08-19T05:20:02.673Z,19.80
2022-08-19T05:21:02.729Z,19.80
2022-08-19T05:22:02.734Z,19.80
2022-08-19T05:23:02.710Z,19.80
2022-08-19T05:24:02.842Z,19.80
2022-08-19T05:25:12.510Z,19.80
2022-08-19T05:26:03.003Z,19.80
2022-08-19T05:27:02.994Z,19.80
2022-08-19T05:28:02.996Z,19.80
2022-08-19T05:29:03.026Z,19.80
2022-08-19T05:30:03.158Z,19.80
2022-08-19T05:31:03.227Z,19.80
2022-08-19T05:32:03.211Z,19.80
2022-08-19T05:33:03.467Z,19.80
2022-08-19T05:34:03.105Z,19.80
2022-08-19T05:35:03.132Z,19.80
2022-08-19T05:36:03.255Z,19.80
2022-08-19T05:37:03.394Z,19.80
2022-08-19T05:38:03.342Z,19.80
2022-08-19T05:39:03.403Z,19.80
2022-08-19T05:40:03.553Z,19.80
2022-08-19T05:41:03.633Z,19.90
2022-08-19T05:42:03.605Z,19.80
2022-08-19T05:43:02.669Z,19.80
2022-08-19T05:44:02.619Z,19.90
2022-08-19T05:45:02.681Z,19.80
2022-08-19T05:46:02.862Z,19.90
2022-08-19T05:47:02.848Z,19.80
2022-08-19T05:48:02.882Z,19.80
2022-08-19T05:49:02.867Z,19.90
2022-08-19T05:50:02.874Z,19.90
2022-08-19T05:51:02.980Z,19.80
2022-08-19T05:52:02.905Z,19.90
2022-08-19T05:53:02.886Z,19.80
2022-08-19T05:54:02.870Z,19.80
2022-08-19T05:55:02.888Z,19.80
2022-08-19T05:56:02.962Z,19.80
2022-08-19T05:57:02.997Z,19.80
2022-08-19T05:58:02.986Z,19.90
2022-08-19T05:59:03.081Z,19.90
2022-08-19T06:00:03.217Z,19.80
2022-08-19T06:01:03.263Z,19.90
2022-08-19T06:02:03.339Z,19.90
2022-08-19T06:03:11.752Z,19.80
2022-08-19T06:04:03.574Z,19.80
2022-08-19T06:05:03.482Z,19.80
2022-08-19T06:06:03.587Z,19.80
2022-08-19T06:07:12.416Z,19.80
2022-08-19T06:08:02.658Z,19.80
2022-08-19T06:09:02.691Z,19.80
2022-08-19T06:10:02.724Z,19.80
2022-08-19T06:11:02.917Z,19.80
2022-08-19T06:12:02.942Z,19.80
2022-08-19T06:13:03.053Z,19.80
2022-08-19T06:14:03.009Z,19.80
2022-08-19T06:15:03.102Z,19.80
2022-08-19T06:16:03.262Z,19.80
2022-08-19T06:17:06.739Z,19.80
2022-08-19T06:18:03.201Z,19.80
2022-08-19T06:19:03.257Z,19.80
2022-08-19T06:20:03.280Z,19.80
2022-08-19T06:21:03.397Z,19.80
2022-08-19T06:22:03.434Z,19.80
2022-08-19T06:23:03.508Z,19.80
2022-08-19T06:24:03.496Z,19.80
2022-08-19T06:25:03.425Z,19.80
2022-08-19T06:26:03.538Z,19.80
2022-08-19T06:27:03.555Z,19.80
2022-08-19T06:28:15.639Z,19.80
2022-08-19T06:29:02.675Z,19.80
2022-08-19T06:30:02.713Z,19.80
2022-08-19T06:31:02.745Z,19.80
2022-08-19T06:32:02.878Z,19.80
2022-08-19T06:33:02.820Z,19.80
2022-08-19T06:34:02.821Z,19.80
2022-08-19T06:35:02.729Z,19.80
2022-08-19T06:36:02.897Z,19.80
2022-08-19T06:37:02.958Z,19.80
2022-08-19T06:38:02.744Z,19.80
2022-08-19T06:39:02.878Z,19.80
2022-08-19T06:40:02.984Z,19.80
2022-08-19T06:41:02.833Z,19.80
2022-08-19T06:42:02.925Z,19.80
2022-08-19T06:43:02.827Z,19.80
2022-08-19T06:44:02.861Z,19.80
2022-08-19T06:45:02.872Z,19.80
2022-08-19T06:46:02.965Z,19.80
2022-08-19T06:47:02.970Z,19.80
2022-08-19T06:48:03.206Z,19.90
2022-08-19T06:49:03.005Z,19.80
2022-08-19T06:50:03.385Z,19.90
2022-08-19T06:51:03.096Z,19.90
2022-08-19T06:52:03.107Z,19.80
2022-08-19T06:53:04.348Z,19.90
2022-08-19T06:54:03.183Z,19.90
2022-08-19T06:55:05.832Z,19.90
2022-08-19T06:56:03.391Z,19.90
2022-08-19T06:57:03.577Z,19.90
2022-08-19T06:58:03.358Z,19.90
2022-08-19T06:59:03.377Z,19.90
2022-08-19T07:00:03.567Z,19.90
2022-08-19T07:01:04.548Z,19.80
2022-08-19T07:02:03.603Z,19.90
2022-08-19T07:03:06.236Z,19.80
2022-08-19T07:04:02.574Z,19.80
2022-08-19T07:05:02.689Z,19.90
2022-08-19T07:06:02.761Z,19.80
2022-08-19T07:07:12.506Z,19.90
2022-08-19T07:08:04.673Z,19.90
2022-08-19T07:09:02.961Z,19.90
2022-08-19T07:10:04.896Z,19.90
2022-08-19T07:11:02.744Z,19.90
2022-08-19T07:12:02.803Z,19.90
2022-08-19T07:13:02.857Z,19.90
2022-08-19T07:14:02.885Z,19.90
2022-08-19T07:15:02.882Z,19.90
2022-08-19T07:16:05.546Z,19.90
2022-08-19T07:17:02.888Z,19.90
2022-08-19T07:18:02.870Z,19.90
2022-08-19T07:19:04.841Z,19.90
2022-08-19T07:20:05.268Z,19.90
2022-08-19T07:21:03.041Z,19.90
2022-08-19T07:22:03.130Z,20.00
2022-08-19T07:23:03.099Z,20.00
2022-08-19T07:24:04.187Z,19.90
2022-08-19T07:25:03.230Z,20.00
2022-08-19T07:27:03.462Z,20.00
2022-08-19T07:28:03.376Z,20.00
2022-08-19T07:29:03.477Z,20.00
2022-08-19T07:30:03.354Z,20.00
2022-08-19T07:31:03.413Z,20.00
2022-08-19T07:32:03.349Z,20.00
2022-08-19T07:33:03.769Z,20.00
2022-08-19T07:34:03.562Z,20.00
2022-08-19T07:35:03.547Z,20.00
2022-08-19T07:36:03.568Z,20.00
2022-08-19T07:37:03.596Z,20.00
2022-08-19T07:38:02.696Z,20.00
2022-08-19T07:39:02.771Z,20.00
2022-08-19T07:40:02.709Z,20.00
2022-08-19T07:41:03.646Z,20.00
2022-08-19T07:42:03.579Z,20.00
2022-08-19T07:43:02.673Z,20.10
2022-08-19T07:44:02.750Z,20.10
2022-08-19T07:45:02.714Z,20.10
2022-08-19T07:46:02.861Z,20.10
2022-08-19T07:47:02.915Z,20.10
2022-08-19T07:48:03.109Z,20.10
2022-08-19T07:49:02.937Z,20.10
2022-08-19T07:50:02.915Z,20.10
2022-08-19T07:51:02.965Z,20.10
2022-08-19T07:52:03.009Z,20.10
2022-08-19T07:53:03.003Z,20.10
2022-08-19T07:54:03.022Z,20.10
2022-08-19T07:55:03.091Z,20.10
2022-08-19T07:56:03.156Z,20.10
2022-08-19T07:57:03.175Z,20.10
2022-08-19T07:58:03.267Z,20.10
2022-08-19T07:59:03.222Z,20.10
2022-08-19T08:00:03.300Z,20.10
2022-08-19T08:01:03.516Z,20.10
2022-08-19T08:02:03.595Z,20.10
2022-08-19T08:03:03.497Z,20.20
2022-08-19T08:04:02.645Z,20.20
2022-08-19T08:05:02.673Z,20.20
2022-08-19T08:06:02.786Z,20.20
2022-08-19T08:07:02.796Z,20.20
2022-08-19T08:08:02.759Z,20.20
2022-08-19T08:09:02.872Z,20.20
2022-08-19T08:10:03.521Z,20.20
2022-08-19T08:11:02.967Z,20.20
2022-08-19T08:12:09.038Z,20.20
2022-08-19T08:13:08.994Z,20.20
2022-08-19T08:14:04.457Z,20.20
2022-08-19T08:15:03.059Z,20.20
2022-08-19T08:16:03.065Z,20.20
2022-08-19T08:17:02.760Z,20.20
2022-08-19T08:18:02.727Z,20.20
2022-08-19T08:19:02.837Z,20.20
2022-08-19T08:20:02.990Z,20.20
2022-08-19T08:21:02.915Z,20.20
2022-08-19T08:22:03.153Z,20.20
2022-08-19T08:23:03.099Z,20.20
2022-08-19T08:24:03.232Z,20.20
2022-08-19T08:25:03.248Z,20.20
2022-08-19T08:26:03.308Z,20.20
2022-08-19T08:27:03.488Z,20.20
2022-08-19T08:28:03.222Z,20.20
2022-08-19T08:29:03.339Z,20.20
2022-08-19T08:30:03.465Z,20.20
2022-08-19T08:31:03.582Z,20.20
2022-08-19T08:32:03.543Z,20.20
2022-08-19T08:33:02.833Z,20.20
2022-08-19T08:34:03.648Z,20.20
2022-08-19T08:35:03.673Z,20.20
2022-08-19T08:36:04.070Z,20.20
2022-08-19T08:37:02.713Z,20.20
2022-08-19T08:38:02.801Z,20.20
2022-08-19T08:39:02.774Z,20.20
2022-08-19T08:40:02.946Z,20.20
2022-08-19T08:41:02.791Z,20.20
2022-08-19T08:42:09.793Z,20.20
2022-08-19T08:44:02.871Z,20.20
2022-08-19T08:45:02.838Z,20.20
2022-08-19T08:46:02.911Z,20.20
2022-08-19T08:47:02.814Z,20.20
2022-08-19T08:48:02.797Z,20.20
2022-08-19T08:49:02.879Z,20.20
2022-08-19T08:50:02.923Z,20.20
2022-08-19T08:51:02.990Z,20.30
2022-08-19T08:52:02.950Z,20.20
2022-08-19T08:53:02.962Z,20.30
2022-08-19T08:54:02.914Z,20.30
2022-08-19T08:55:02.898Z,20.30
2022-08-19T08:56:02.958Z,20.30
2022-08-19T08:57:02.830Z,20.30
2022-08-19T08:58:02.955Z,20.30
2022-08-19T08:59:02.851Z,20.30
2022-08-19T09:00:02.901Z,20.30
2022-08-19T09:01:03.015Z,20.30
2022-08-19T09:02:02.947Z,20.30
2022-08-19T09:03:03.036Z,20.30
2022-08-19T09:04:03.157Z,20.30
2022-08-19T09:05:03.152Z,20.40
2022-08-19T09:06:02.999Z,20.40
2022-08-19T09:07:03.097Z,20.40
2022-08-19T09:08:03.198Z,20.40
2022-08-19T09:09:03.258Z,20.40
2022-08-19T09:10:03.262Z,20.40
2022-08-19T09:11:03.199Z,20.40
2022-08-19T09:12:03.245Z,20.40
2022-08-19T09:13:03.401Z,20.40
2022-08-19T09:14:03.575Z,20.50
2022-08-19T09:15:02.687Z,20.50
2022-08-19T09:16:02.759Z,20.50
2022-08-19T09:17:02.821Z,20.50
2022-08-19T09:18:02.812Z,20.50
2022-08-19T09:19:02.971Z,20.50
2022-08-19T09:20:03.051Z,20.50
2022-08-19T09:21:03.183Z,20.50
2022-08-19T09:22:03.160Z,20.50
2022-08-19T09:23:03.253Z,20.50
2022-08-19T09:24:03.379Z,20.50
2022-08-19T09:25:03.078Z,20.50
2022-08-19T09:26:03.221Z,20.50
2022-08-19T09:27:06.727Z,20.50
2022-08-19T09:28:05.553Z,20.50
2022-08-19T09:29:02.607Z,20.50
2022-08-19T09:30:02.753Z,20.50
2022-08-19T09:31:02.815Z,20.50
2022-08-19T09:32:02.758Z,20.40
2022-08-19T09:33:02.722Z,20.40
2022-08-19T09:34:02.709Z,20.40
2022-08-19T09:35:02.819Z,20.40
2022-08-19T09:36:03.260Z,20.40
2022-08-19T09:37:03.276Z,20.30
2022-08-19T09:38:03.326Z,20.30
2022-08-19T09:39:03.438Z,20.30
2022-08-19T09:40:03.583Z,20.30
2022-08-19T09:41:03.691Z,20.30
2022-08-19T09:42:02.688Z,20.30
2022-08-19T09:43:02.837Z,20.30
2022-08-19T09:44:02.908Z,20.20
2022-08-19T09:45:04.947Z,20.20
2022-08-19T09:46:03.146Z,20.20
2022-08-19T09:47:03.237Z,20.20
2022-08-19T09:48:03.192Z,20.20
2022-08-19T09:49:06.201Z,20.20
2022-08-19T09:50:03.272Z,20.20
2022-08-19T09:51:03.446Z,20.20
2022-08-19T09:52:03.402Z,20.20
2022-08-19T09:53:03.512Z,20.20
2022-08-19T09:54:04.472Z,20.20
2022-08-19T09:55:07.084Z,20.20
2022-08-19T09:56:04.133Z,20.20
2022-08-19T09:57:03.789Z,20.20
2022-08-19T09:58:02.753Z,20.20
2022-08-19T09:59:02.790Z,20.20
2022-08-19T10:00:02.741Z,20.20
2022-08-19T10:01:02.863Z,20.20
2022-08-19T10:02:03.750Z,20.30
2022-08-19T10:03:03.499Z,20.20
2022-08-19T10:04:05.385Z,20.20
2022-08-19T10:05:02.929Z,20.20
2022-08-19T10:06:03.042Z,20.20
2022-08-19T10:07:03.090Z,20.20
2022-08-19T10:08:04.405Z,20.20
2022-08-19T10:09:03.133Z,20.20
2022-08-19T10:10:03.118Z,20.20
2022-08-19T10:11:27.698Z,20.20
2022-08-19T10:12:03.386Z,20.20
2022-08-19T10:13:03.403Z,20.10
2022-08-19T10:14:03.350Z,20.10
2022-08-19T10:15:03.520Z,20.10
2022-08-19T10:16:03.572Z,20.10
2022-08-19T10:17:04.648Z,20.00
2022-08-19T10:18:02.936Z,20.00
2022-08-19T10:19:03.532Z,20.00
2022-08-19T10:20:02.857Z,20.00
2022-08-19T10:21:02.960Z,20.00
2022-08-19T10:22:02.987Z,20.00
2022-08-19T10:23:02.993Z,20.00
2022-08-19T10:24:03.015Z,20.00
2022-08-19T10:25:03.055Z,20.00
2022-08-19T10:26:03.099Z,20.00
2022-08-19T10:27:03.113Z,20.00
2022-08-19T10:28:03.167Z,20.00
2022-08-19T10:29:03.295Z,20.00
2022-08-19T10:30:03.299Z,20.00
2022-08-19T10:31:03.367Z,20.00
2022-08-19T10:32:03.537Z,19.90
2022-08-19T10:33:07.988Z,19.90
2022-08-19T10:34:03.584Z,19.90
2022-08-19T10:35:02.651Z,19.90
2022-08-19T10:36:02.637Z,19.90
2022-08-19T10:37:02.697Z,19.90
2022-08-19T10:38:02.919Z,19.90
2022-08-19T10:39:02.731Z,19.90
2022-08-19T10:40:02.800Z,19.90
2022-08-19T10:41:02.701Z,19.90
2022-08-19T10:42:02.755Z,19.80
2022-08-19T10:43:02.754Z,19.80
2022-08-19T10:44:03.952Z,19.80
2022-08-19T10:45:02.766Z,19.80
2022-08-19T10:46:02.800Z,19.90
2022-08-19T10:47:02.779Z,19.80
2022-08-19T10:48:02.848Z,19.80
2022-08-19T10:49:02.891Z,19.80
2022-08-19T10:50:02.845Z,19.80
2022-08-19T10:51:03.001Z,19.80
2022-08-19T10:52:03.010Z,19.80
2022-08-19T10:53:03.086Z,19.80
2022-08-19T10:54:03.063Z,19.80
2022-08-19T10:55:05.127Z,19.80
2022-08-19T10:56:03.038Z,19.80
2022-08-19T10:57:03.008Z,19.80
2022-08-19T10:58:03.185Z,19.80
2022-08-19T10:59:03.138Z,19.80
2022-08-19T11:00:03.093Z,19.80
2022-08-19T11:01:03.250Z,19.80
2022-08-19T11:02:03.188Z,19.80
2022-08-19T11:03:03.229Z,19.80
2022-08-19T11:04:03.222Z,19.80
2022-08-19T11:05:05.123Z,19.80
2022-08-19T11:06:03.456Z,19.80
2022-08-19T11:07:03.621Z,19.80
2022-08-19T11:08:02.898Z,19.80
2022-08-19T11:09:02.589Z,19.80
2022-08-19T11:10:02.739Z,19.80
2022-08-19T11:11:02.882Z,19.80
2022-08-19T11:12:04.773Z,19.80
2022-08-19T11:13:02.982Z,19.80
2022-08-19T11:14:02.981Z,19.90
2022-08-19T11:15:02.985Z,19.90
2022-08-19T11:16:07.282Z,19.90
2022-08-19T11:17:03.083Z,19.90
2022-08-19T11:18:03.062Z,19.90
2022-08-19T11:19:03.024Z,19.90
2022-08-19T11:20:03.073Z,19.90
2022-08-19T11:21:03.043Z,19.90
2022-08-19T11:22:03.638Z,19.90
2022-08-19T11:23:03.159Z,19.90
2022-08-19T11:24:03.070Z,19.90
2022-08-19T11:25:03.063Z,19.90
2022-08-19T11:26:03.028Z,19.90
2022-08-19T11:27:03.192Z,19.90
2022-08-19T11:28:03.263Z,19.90
2022-08-19T11:29:03.171Z,19.90
2022-08-19T11:30:03.203Z,19.90
2022-08-19T11:31:03.159Z,19.90
2022-08-19T11:32:03.081Z,19.90
2022-08-19T11:33:03.132Z,19.90
2022-08-19T11:34:03.179Z,19.90
2022-08-19T11:35:03.266Z,20.00
2022-08-19T11:36:03.165Z,20.00
2022-08-19T11:37:03.172Z,20.00
2022-08-19T11:38:04.769Z,20.00
2022-08-19T11:39:03.351Z,20.10
2022-08-19T11:40:03.347Z,20.10
2022-08-19T11:41:03.342Z,20.10
2022-08-19T11:42:03.446Z,20.20
2022-08-19T11:43:03.398Z,20.20
2022-08-19T11:44:03.551Z,20.30
2022-08-19T11:45:03.490Z,20.30
2022-08-19T11:46:03.482Z,20.30
2022-08-19T11:47:08.738Z,20.40
2022-08-19T11:48:03.629Z,20.40
2022-08-19T11:49:03.596Z,20.40
2022-08-19T11:50:03.517Z,20.40
2022-08-19T11:51:02.641Z,20.50
2022-08-19T11:52:02.604Z,20.50
2022-08-19T11:53:02.742Z,20.50
2022-08-19T11:54:02.789Z,20.50
2022-08-19T11:55:02.825Z,20.50
2022-08-19T11:56:02.881Z,20.60
2022-08-19T11:57:02.827Z,20.60
2022-08-19T11:58:02.830Z,20.60
2022-08-19T11:59:03.028Z,20.60
2022-08-19T12:00:03.080Z,20.70
2022-08-19T12:01:03.211Z,20.70
2022-08-19T12:02:03.374Z,20.70
2022-08-19T12:03:03.410Z,20.70
2022-08-19T12:04:03.455Z,20.70
2022-08-19T12:05:03.452Z,20.70
2022-08-19T12:06:03.473Z,20.80
2022-08-19T12:07:03.562Z,20.70
2022-08-19T12:08:03.659Z,20.70
2022-08-19T12:09:03.653Z,20.70
2022-08-19T12:10:03.685Z,20.70
2022-08-19T12:11:02.628Z,20.70
2022-08-19T12:12:02.741Z,20.80
2022-08-19T12:13:02.696Z,20.80
2022-08-19T12:14:02.789Z,20.80
2022-08-19T12:15:02.912Z,20.80
2022-08-19T12:16:02.929Z,20.90
2022-08-19T12:17:02.997Z,20.90
2022-08-19T12:18:03.045Z,20.90
2022-08-19T12:19:03.223Z,20.90
2022-08-19T12:20:03.368Z,21.00
2022-08-19T12:21:03.352Z,21.00
2022-08-19T12:22:03.365Z,21.00
2022-08-19T12:23:03.316Z,21.00
2022-08-19T12:24:03.344Z,21.00
2022-08-19T12:25:03.435Z,21.00
2022-08-19T12:26:03.492Z,21.10
2022-08-19T12:27:03.566Z,21.10
2022-08-19T12:28:03.915Z,21.10
2022-08-19T12:29:02.681Z,21.10
2022-08-19T12:30:02.651Z,21.20
2022-08-19T12:31:02.636Z,21.20
2022-08-19T12:32:03.963Z,21.20
2022-08-19T12:33:02.761Z,21.20
2022-08-19T12:34:02.741Z,21.20
2022-08-19T12:35:02.731Z,21.20
2022-08-19T12:36:02.847Z,21.20
2022-08-19T12:37:02.928Z,21.20
2022-08-19T12:38:02.978Z,21.20
2022-08-19T12:39:02.867Z,21.20
2022-08-19T12:40:03.173Z,21.30
2022-08-19T12:41:02.973Z,21.30
2022-08-19T12:42:03.003Z,21.30
2022-08-19T12:43:02.971Z,21.30
2022-08-19T12:44:02.902Z,21.30
2022-08-19T12:45:02.985Z,21.30
2022-08-19T12:46:03.039Z,21.30
2022-08-19T12:47:03.532Z,21.30
2022-08-19T12:48:07.979Z,21.30
2022-08-19T12:49:05.115Z,21.30
2022-08-19T12:50:06.526Z,21.30
2022-08-19T12:51:03.210Z,21.20
2022-08-19T12:52:03.441Z,21.20
2022-08-19T12:53:03.447Z,21.30
2022-08-19T12:54:03.395Z,21.30